Time;durP1;ratioP1;P1;durP2;ratioP2;P2;SDS_P1;SDS_P2;PMS_P1;PMS_P2;Temp;Humidity;BMP_temperature;BMP_pressure;BME280_temperature;BME280_humidity;BME280_pressure;Samples;Min_cycle;Max_cycle;Signal;HPM_P1;HPM_P2
2024/01/20 00:01:01;;;;;;;50.92;26.70;;;;;;;1.71;71.63;102593.25;5017945;28;20036;-61
2024/01/20 00:03:26;;;;;;;42.85;23.92;;;;;;;1.74;72.56;102594.81;5027123;28;20040;-61
2024/01/20 00:05:51;;;;;;;45.03;23.98;;;;;;;1.72;71.79;102581.28;5029382;28;20419;-61
2024/01/20 00:08:17;;;;;;;46.47;26.23;;;;;;;1.78;72.11;102587.16;5029136;28;20397;-61
2024/01/20 00:10:42;;;;;;;47.40;24.52;;;;;;;1.79;72.40;102592.47;5028371;28;20032;-61
2024/01/20 00:13:07;;;;;;;47.55;25.88;;;;;;;1.79;72.50;102594.34;5029255;28;20026;-62
2024/01/20 00:15:33;;;;;;;46.65;24.33;;;;;;;1.80;71.82;102585.13;5035207;28;20067;-60
2024/01/20 00:17:58;;;;;;;42.03;23.45;;;;;;;1.79;71.98;102592.47;5005023;28;20707;-60
2024/01/20 00:20:23;;;;;;;46.15;24.38;;;;;;;1.75;72.17;102588.31;5003025;28;20063;-61
2024/01/20 00:22:49;;;;;;;45.55;24.83;;;;;;;1.78;72.26;102596.25;5011564;28;20083;-61
2024/01/20 00:25:15;;;;;;;45.88;23.58;;;;;;;1.76;71.83;102602.88;5006567;28;20041;-61
2024/01/20 00:27:40;;;;;;;46.10;23.52;;;;;;;1.77;72.19;102602.75;5005383;28;20042;-60
2024/01/20 00:30:06;;;;;;;47.03;23.42;;;;;;;1.79;72.33;102605.31;5002772;28;20033;-61
2024/01/20 00:32:31;;;;;;;53.25;25.20;;;;;;;1.75;72.13;102602.00;5010130;28;20053;-61
2024/01/20 00:34:57;;;;;;;46.15;24.08;;;;;;;1.73;71.93;102604.06;5004090;28;20022;-60
2024/01/20 00:37:22;;;;;;;41.63;23.45;;;;;;;1.73;71.92;102601.31;5008147;28;20138;-61
2024/01/20 00:39:47;;;;;;;46.65;23.95;;;;;;;1.76;72.62;102587.31;5007826;28;20374;-61
2024/01/20 00:42:12;;;;;;;42.40;23.33;;;;;;;1.78;72.32;102581.69;5007166;28;20052;-61
2024/01/20 00:44:40;;;;;;;40.83;22.00;;;;;;;1.77;72.21;102582.69;5007358;28;20470;-61
2024/01/20 00:47:06;;;;;;;45.08;23.88;;;;;;;1.77;71.92;102589.06;5031466;28;20548;-62
2024/01/20 00:49:31;;;;;;;43.55;23.67;;;;;;;1.79;72.60;102594.34;5010700;28;20038;-61
2024/01/20 00:51:56;;;;;;;42.45;23.38;;;;;;;1.77;71.93;102588.16;5008007;28;20075;-61
2024/01/20 00:54:21;;;;;;;42.45;23.52;;;;;;;1.66;71.71;102603.78;5007763;28;20121;-61
2024/01/20 00:56:47;;;;;;;44.00;23.92;;;;;;;1.65;72.81;102601.19;5008318;28;20086;-61
2024/01/20 00:59:12;;;;;;;44.42;22.52;;;;;;;1.64;72.26;102594.00;5007539;28;21562;-62
2024/01/20 01:01:37;;;;;;;46.83;23.35;;;;;;;1.65;72.56;102596.59;5007670;28;20433;-61
2024/01/20 01:04:03;;;;;;;42.28;22.23;;;;;;;1.66;72.44;102592.84;4999330;28;20027;-61
2024/01/20 01:06:28;;;;;;;45.33;23.90;;;;;;;1.71;72.25;102589.66;5074508;28;20468;-61
2024/01/20 01:08:53;;;;;;;42.53;21.40;;;;;;;1.69;72.29;102587.06;5015139;28;20029;-61
2024/01/20 01:11:19;;;;;;;43.28;22.25;;;;;;;1.71;72.59;102595.97;5008613;28;20026;-61
2024/01/20 01:13:44;;;;;;;46.75;23.20;;;;;;;1.70;72.26;102583.31;5007289;28;20064;-61
2024/01/20 01:16:09;;;;;;;43.65;23.98;;;;;;;1.74;71.86;102583.00;5001774;28;20046;-61
2024/01/20 01:18:35;;;;;;;45.20;22.90;;;;;;;1.71;72.24;102595.13;5013033;28;20064;-61
2024/01/20 01:21:00;;;;;;;43.25;22.73;;;;;;;1.68;71.95;102590.81;5010333;28;20021;-61
2024/01/20 01:23:25;;;;;;;39.70;21.92;;;;;;;1.73;72.07;102604.06;5015201;28;20026;-61
2024/01/20 01:25:52;;;;;;;45.65;23.05;;;;;;;1.64;71.83;102594.84;5015931;28;20025;-61
2024/01/20 01:28:17;;;;;;;38.90;20.77;;;;;;;1.56;72.95;102588.41;5073105;28;20030;-61
2024/01/20 01:30:44;;;;;;;42.58;23.13;;;;;;;1.54;72.73;102587.72;5005683;28;20022;-61
2024/01/20 01:33:09;;;;;;;39.90;20.85;;;;;;;1.54;72.94;102594.06;5032728;28;20099;-60
2024/01/20 01:35:34;;;;;;;37.65;20.92;;;;;;;1.59;72.12;102599.06;5014172;28;20457;-61
2024/01/20 01:38:00;;;;;;;40.22;21.45;;;;;;;1.62;72.38;102601.53;5063628;28;20024;-61
2024/01/20 01:40:25;;;;;;;45.28;21.98;;;;;;;1.64;71.90;102608.53;5049515;28;20021;-60
2024/01/20 01:42:57;;;;;;;37.50;21.15;;;;;;;1.62;72.20;102607.00;5013685;28;20183;-61
2024/01/20 01:45:24;;;;;;;39.30;21.65;;;;;;;1.64;71.96;102607.69;5010693;28;20033;-60
2024/01/20 01:47:51;;;;;;;40.00;21.90;;;;;;;1.62;72.64;102607.84;5013080;28;20054;-61
2024/01/20 01:50:18;;;;;;;40.72;21.45;;;;;;;1.66;72.10;102609.28;5017126;28;20108;-61
2024/01/20 01:52:45;;;;;;;41.47;21.67;;;;;;;1.65;72.15;102618.50;5012670;28;20029;-60
2024/01/20 01:55:11;;;;;;;37.90;21.52;;;;;;;1.64;72.44;102624.97;5011988;28;20053;-61
2024/01/20 01:57:38;;;;;;;42.45;22.33;;;;;;;1.67;72.47;102610.13;5053742;28;20104;-60
2024/01/20 02:00:04;;;;;;;41.22;22.05;;;;;;;1.67;72.72;102621.06;5067003;28;20063;-60
2024/01/20 02:02:29;;;;;;;41.80;22.45;;;;;;;1.63;72.22;102622.41;5010792;28;20034;-61
2024/01/20 02:04:55;;;;;;;46.13;23.15;;;;;;;1.63;72.13;102625.97;5010963;28;20678;-60
2024/01/20 02:07:21;;;;;;;37.55;21.27;;;;;;;1.66;72.29;102633.91;5010446;28;20041;-61
2024/01/20 02:09:47;;;;;;;39.05;20.42;;;;;;;1.67;72.65;102641.09;5010262;28;20109;-60
2024/01/20 02:12:14;;;;;;;42.15;22.70;;;;;;;1.66;72.59;102639.38;5010781;28;20890;-60
2024/01/20 02:14:42;;;;;;;39.75;22.75;;;;;;;1.64;72.58;102633.19;5010088;28;20469;-60
2024/01/20 02:17:07;;;;;;;41.78;22.50;;;;;;;1.66;72.71;102631.16;5006079;28;20446;-60
2024/01/20 02:19:40;;;;;;;38.90;21.67;;;;;;;1.69;72.76;102641.81;5000013;28;20129;-61
2024/01/20 02:22:15;;;;;;;39.38;21.17;;;;;;;1.70;72.60;102642.69;5008928;28;20061;-60
2024/01/20 02:24:46;;;;;;;39.47;21.20;;;;;;;1.68;72.38;102634.59;5010087;28;20507;-60
2024/01/20 02:27:12;;;;;;;40.05;22.10;;;;;;;1.66;72.22;102644.84;5010984;28;20533;-60
2024/01/20 02:29:39;;;;;;;40.30;21.90;;;;;;;1.65;72.32;102648.59;5009912;28;20042;-60
2024/01/20 02:32:05;;;;;;;38.08;21.02;;;;;;;1.64;72.18;102651.47;5017015;28;20058;-61
2024/01/20 02:34:30;;;;;;;39.08;22.15;;;;;;;1.63;72.38;102656.09;5014177;28;20045;-61
2024/01/20 02:36:55;;;;;;;38.30;22.48;;;;;;;1.63;72.04;102647.88;5069165;28;20022;-61
2024/01/20 02:39:21;;;;;;;39.85;22.33;;;;;;;1.63;72.62;102650.63;5010159;28;20046;-61
2024/01/20 02:41:47;;;;;;;37.50;21.67;;;;;;;1.59;72.60;102645.59;5010323;28;20018;-61
2024/01/20 02:44:12;;;;;;;40.95;22.45;;;;;;;1.60;72.85;102639.97;5008808;28;20054;-61
2024/01/20 02:46:38;;;;;;;35.15;20.65;;;;;;;1.61;72.46;102647.19;5008176;28;20022;-61
2024/01/20 02:49:03;;;;;;;36.65;21.80;;;;;;;1.64;72.25;102644.13;5009293;28;20038;-60
2024/01/20 02:51:28;;;;;;;40.38;22.23;;;;;;;1.63;72.82;102639.66;5001828;28;20041;-61
2024/01/20 02:53:54;;;;;;;44.05;23.13;;;;;;;1.65;72.67;102640.41;5010475;28;20093;-61
2024/01/20 02:56:19;;;;;;;39.17;21.42;;;;;;;1.66;72.14;102636.63;5010060;28;20055;-60
2024/01/20 02:58:44;;;;;;;39.42;22.70;;;;;;;1.64;72.47;102629.59;5009614;28;20037;-61
2024/01/20 03:01:10;;;;;;;40.33;22.13;;;;;;;1.62;72.09;102634.38;5009443;28;20094;-61
2024/01/20 03:03:35;;;;;;;36.63;21.80;;;;;;;1.61;72.08;102641.72;4999126;28;20040;-61
2024/01/20 03:06:00;;;;;;;37.08;21.27;;;;;;;1.66;72.47;102652.22;5008740;28;20033;-60
2024/01/20 03:08:26;;;;;;;36.95;21.77;;;;;;;1.61;72.54;102655.41;5010191;28;20038;-60
2024/01/20 03:10:51;;;;;;;34.95;20.95;;;;;;;1.64;72.11;102660.53;5010440;28;20040;-61
2024/01/20 03:13:16;;;;;;;36.72;21.63;;;;;;;1.62;72.12;102662.59;5009373;28;20033;-61
2024/01/20 03:15:42;;;;;;;38.30;21.48;;;;;;;1.67;72.38;102668.47;5008261;28;20026;-61
2024/01/20 03:18:07;;;;;;;39.97;21.23;;;;;;;1.61;72.66;102663.59;5010329;28;20033;-61
2024/01/20 03:20:32;;;;;;;39.70;21.73;;;;;;;1.58;72.20;102661.16;5016450;28;20019;-61
2024/01/20 03:22:58;;;;;;;39.38;22.00;;;;;;;1.58;72.94;102666.63;5106633;28;20394;-61
2024/01/20 03:25:23;;;;;;;38.17;21.85;;;;;;;1.60;72.54;102658.25;5047778;28;20036;-61
2024/01/20 03:27:48;;;;;;;37.65;21.75;;;;;;;1.59;72.12;102665.63;5009222;28;20055;-61
2024/01/20 03:30:14;;;;;;;35.38;21.67;;;;;;;1.50;73.01;102669.25;5008993;28;20105;-61
2024/01/20 03:32:39;;;;;;;44.47;21.95;;;;;;;1.57;72.59;102673.13;5029812;28;20020;-61
2024/01/20 03:35:05;;;;;;;38.53;21.08;;;;;;;1.59;73.15;102664.75;5028827;28;20033;-61
2024/01/20 03:37:30;;;;;;;39.05;20.92;;;;;;;1.59;72.29;102668.34;5029495;28;20029;-60
2024/01/20 03:39:56;;;;;;;38.40;22.25;;;;;;;1.59;72.12;102665.63;5005821;28;20070;-60
2024/01/20 03:42:22;;;;;;;37.25;21.30;;;;;;;1.58;72.23;102665.78;5009191;28;20790;-60
2024/01/20 03:44:48;;;;;;;37.70;21.17;;;;;;;1.52;72.88;102667.22;5009299;28;20401;-60
2024/01/20 03:47:13;;;;;;;42.15;21.77;;;;;;;1.53;72.35;102679.88;5028310;28;20040;-60
2024/01/20 03:49:38;;;;;;;36.65;21.45;;;;;;;1.54;72.86;102670.69;5022319;28;20018;-60
2024/01/20 03:52:04;;;;;;;35.58;20.75;;;;;;;1.55;73.16;102680.63;5009929;28;20065;-60
2024/01/20 03:54:29;;;;;;;37.33;19.73;;;;;;;1.58;72.71;102666.63;5009074;28;20430;-61
2024/01/20 03:56:54;;;;;;;38.60;21.27;;;;;;;1.53;73.06;102668.94;5070148;28;20037;-61
2024/01/20 03:59:20;;;;;;;34.53;19.85;;;;;;;1.60;72.39;102666.47;5035219;28;20036;-60
2024/01/20 04:01:45;;;;;;;36.33;20.88;;;;;;;1.60;72.94;102661.84;5014491;28;20034;-61
2024/01/20 04:04:10;;;;;;;38.00;21.00;;;;;;;1.60;72.59;102664.59;5009381;28;20041;-61
2024/01/20 04:06:36;;;;;;;38.40;20.95;;;;;;;1.61;72.14;102665.47;5024573;28;20029;-61
2024/01/20 04:09:01;;;;;;;37.00;20.75;;;;;;;1.59;72.46;102667.50;5028107;28;20044;-61
2024/01/20 04:11:26;;;;;;;36.10;21.33;;;;;;;1.62;72.84;102665.31;5011319;28;20052;-61
2024/01/20 04:13:51;;;;;;;36.13;20.15;;;;;;;1.62;73.07;102668.06;5008625;28;20445;-61
2024/01/20 04:16:17;;;;;;;38.50;21.08;;;;;;;1.59;73.16;102665.63;5017577;28;20026;-61
2024/01/20 04:18:42;;;;;;;37.60;21.33;;;;;;;1.60;72.40;102666.47;5001024;28;20037;-60
2024/01/20 04:21:07;;;;;;;36.13;20.42;;;;;;;1.60;72.93;102675.53;4989281;28;20121;-61
2024/01/20 04:23:33;;;;;;;36.03;19.45;;;;;;;1.63;72.83;102675.25;4988444;28;20026;-61
2024/01/20 04:25:58;;;;;;;39.95;21.70;;;;;;;1.63;73.17;102679.88;4989037;28;20088;-61
2024/01/20 04:28:23;;;;;;;35.60;21.55;;;;;;;1.62;72.81;102684.47;5006793;28;20022;-60
2024/01/20 04:30:50;;;;;;;34.65;20.83;;;;;;;1.62;72.38;102687.22;5007153;28;20496;-61
2024/01/20 04:33:15;;;;;;;34.25;20.60;;;;;;;1.62;73.08;102694.56;5009067;28;20041;-61
2024/01/20 04:35:40;;;;;;;40.20;21.63;;;;;;;1.59;72.95;102687.50;5008024;28;20034;-61
2024/01/20 04:38:06;;;;;;;35.55;21.27;;;;;;;1.50;72.68;102691.16;5007876;28;20477;-61
2024/01/20 04:40:31;;;;;;;32.40;19.27;;;;;;;1.55;73.26;102702.50;5008213;28;20070;-60
2024/01/20 04:42:56;;;;;;;38.67;20.75;;;;;;;1.50;73.05;102699.38;5006397;28;20053;-61
2024/01/20 04:45:21;;;;;;;38.33;21.23;;;;;;;1.46;73.06;102697.94;5000648;28;20036;-61
2024/01/20 04:47:47;;;;;;;35.92;21.00;;;;;;;1.47;73.35;102691.44;5010261;28;20468;-61
2024/01/20 04:50:12;;;;;;;37.92;21.38;;;;;;;1.44;73.74;102699.94;5008257;28;20388;-61
2024/01/20 04:52:37;;;;;;;36.15;20.13;;;;;;;1.44;73.21;102708.16;5007604;28;20067;-61
2024/01/20 04:55:03;;;;;;;33.80;21.00;;;;;;;1.48;73.51;102704.97;5007705;28;20557;-61
2024/01/20 04:57:28;;;;;;;33.58;19.42;;;;;;;1.50;72.77;102702.09;5008660;28;20038;-61
2024/01/20 04:59:53;;;;;;;36.53;21.00;;;;;;;1.45;72.78;102697.06;5018492;28;20038;-61
2024/01/20 05:02:19;;;;;;;37.38;19.60;;;;;;;1.44;73.11;102703.53;5017946;28;20029;-61
2024/01/20 05:04:44;;;;;;;35.00;19.58;;;;;;;1.45;72.73;102704.41;5028252;28;20108;-61
2024/01/20 05:07:10;;;;;;;33.67;20.50;;;;;;;1.48;73.16;102706.84;5009403;28;20026;-61
2024/01/20 05:09:35;;;;;;;37.63;22.05;;;;;;;1.43;72.99;102698.22;5008267;28;20026;-61
2024/01/20 05:12:00;;;;;;;32.50;19.52;;;;;;;1.43;73.67;102699.09;5007567;28;20461;-61
2024/01/20 05:14:26;;;;;;;36.33;20.98;;;;;;;1.42;73.13;102701.97;5008331;28;20029;-60
2024/01/20 05:16:51;;;;;;;34.35;20.27;;;;;;;1.44;73.00;102713.63;5005512;28;20521;-61
2024/01/20 05:19:16;;;;;;;34.42;20.30;;;;;;;1.42;73.59;102712.94;5003068;28;20059;-61
2024/01/20 05:21:42;;;;;;;33.58;19.33;;;;;;;1.44;72.66;102710.88;5008403;28;20018;-60
2024/01/20 05:24:07;;;;;;;34.65;20.98;;;;;;;1.42;73.54;102713.78;5007937;28;20820;-61
2024/01/20 05:26:32;;;;;;;35.63;19.95;;;;;;;1.46;72.92;102720.69;5007548;28;20034;-60
2024/01/20 05:28:58;;;;;;;41.78;21.33;;;;;;;1.46;72.69;102715.22;5011060;28;20033;-60
2024/01/20 05:31:24;;;;;;;38.92;20.55;;;;;;;1.43;73.02;102718.25;5011427;28;20103;-61
2024/01/20 05:33:50;;;;;;;32.83;19.70;;;;;;;1.44;72.89;102713.63;5009723;28;20057;-61
2024/01/20 05:36:15;;;;;;;39.40;20.77;;;;;;;1.45;73.27;102715.34;5008583;28;20053;-60
2024/01/20 05:38:41;;;;;;;34.13;19.85;;;;;;;1.44;72.54;102710.88;5041876;28;20031;-60
2024/01/20 05:41:08;;;;;;;35.38;20.85;;;;;;;1.50;72.72;102720.41;5030981;28;20121;-60
2024/01/20 05:43:33;;;;;;;34.72;19.83;;;;;;;1.48;72.81;102726.00;5016346;28;20050;-60
2024/01/20 05:45:58;;;;;;;34.55;20.35;;;;;;;1.50;72.61;102718.53;5019449;28;20439;-61
2024/01/20 05:48:24;;;;;;;31.70;19.10;;;;;;;1.47;72.35;102718.81;5009920;28;20061;-60
2024/01/20 05:50:49;;;;;;;32.08;19.52;;;;;;;1.47;73.24;102724.28;5011325;28;20034;-60
2024/01/20 05:53:14;;;;;;;32.20;19.10;;;;;;;1.47;72.50;102730.63;5010706;28;20107;-60
2024/01/20 05:55:40;;;;;;;32.50;19.05;;;;;;;1.45;72.54;102732.66;5009349;28;20020;-61
2024/01/20 05:58:05;;;;;;;30.85;19.05;;;;;;;1.47;72.96;102730.63;5025068;28;20043;-60
2024/01/20 06:00:31;;;;;;;31.23;19.40;;;;;;;1.45;72.63;102732.66;5046435;28;20026;-59
2024/01/20 06:02:56;;;;;;;30.73;18.48;;;;;;;1.45;73.01;102734.50;5008842;28;20022;-60
2024/01/20 06:05:21;;;;;;;33.10;19.95;;;;;;;1.47;73.18;102737.97;4997523;28;20038;-59
2024/01/20 06:07:47;;;;;;;30.92;20.40;;;;;;;1.46;72.43;102733.50;5008987;28;20026;-60
2024/01/20 06:10:12;;;;;;;33.42;20.42;;;;;;;1.46;73.19;102739.84;5017134;28;20026;-60
2024/01/20 06:12:38;;;;;;;32.17;20.08;;;;;;;1.46;72.79;102738.97;5013055;28;20100;-60
2024/01/20 06:15:03;;;;;;;36.22;20.52;;;;;;;1.46;73.16;102749.94;4996695;28;20473;-60
2024/01/20 06:17:29;;;;;;;34.53;19.92;;;;;;;1.42;72.59;102743.88;5010028;28;20431;-60
2024/01/20 06:19:54;;;;;;;32.72;18.73;;;;;;;1.43;73.11;102750.22;5030897;28;20064;-60
2024/01/20 06:22:20;;;;;;;32.70;20.30;;;;;;;1.43;72.98;102751.06;5012379;28;20491;-60
2024/01/20 06:24:45;;;;;;;34.30;19.35;;;;;;;1.45;73.08;102746.34;5028301;28;20488;-60
2024/01/20 06:27:11;;;;;;;29.23;19.10;;;;;;;1.46;73.10;102749.94;5030591;28;20041;-61
2024/01/20 06:29:42;;;;;;;28.90;18.27;;;;;;;1.44;72.72;102757.41;5019207;28;20029;-61
2024/01/20 06:32:08;;;;;;;32.72;19.30;;;;;;;1.40;72.50;102750.50;5055405;28;20477;-60
2024/01/20 06:34:33;;;;;;;31.35;18.52;;;;;;;1.43;72.64;102755.69;5014041;28;20018;-60
2024/01/20 06:36:58;;;;;;;31.52;19.02;;;;;;;1.39;73.23;102748.78;5009723;28;20112;-61
2024/01/20 06:39:24;;;;;;;31.25;18.58;;;;;;;1.39;73.04;102755.13;5023330;28;20022;-58
2024/01/20 06:41:50;;;;;;;29.42;18.52;;;;;;;1.42;72.97;102759.44;5017992;28;20029;-60
2024/01/20 06:44:16;;;;;;;32.65;20.15;;;;;;;1.44;72.72;102765.63;4996405;28;20062;-60
2024/01/20 06:46:41;;;;;;;30.35;19.60;;;;;;;1.41;73.11;102761.28;5014455;28;20030;-60
2024/01/20 06:49:06;;;;;;;29.80;20.15;;;;;;;1.45;73.34;102759.13;5024973;28;20035;-60
2024/01/20 06:51:32;;;;;;;32.58;20.10;;;;;;;1.39;72.63;102765.19;5027251;28;20488;-60
2024/01/20 06:53:57;;;;;;;33.90;20.30;;;;;;;1.43;72.74;102780.31;5010077;28;20029;-60
2024/01/20 06:56:26;;;;;;;35.97;20.60;;;;;;;1.42;73.39;102781.34;5063598;28;20084;-60
2024/01/20 06:58:55;;;;;;;31.63;21.55;;;;;;;1.41;72.70;102783.19;5001187;28;20434;-60
2024/01/20 07:01:22;;;;;;;31.65;19.85;;;;;;;1.42;72.87;102775.84;5015094;28;20044;-59
2024/01/20 07:03:47;;;;;;;30.55;19.90;;;;;;;1.37;72.86;102779.00;5017132;28;20030;-59
2024/01/20 07:06:13;;;;;;;29.92;18.98;;;;;;;1.38;72.37;102783.50;5009074;28;20091;-60
2024/01/20 07:08:39;;;;;;;33.13;20.55;;;;;;;1.36;73.28;102788.22;5009746;28;20034;-59
2024/01/20 07:11:11;;;;;;;31.40;19.92;;;;;;;1.39;72.41;102781.63;5007419;28;20032;-60
2024/01/20 07:13:37;;;;;;;29.77;19.50;;;;;;;1.38;72.32;102788.97;5037208;28;20034;-60
2024/01/20 07:16:13;;;;;;;30.92;20.58;;;;;;;1.38;73.01;102791.69;5023525;28;20022;-60
2024/01/20 07:18:39;;;;;;;32.65;19.80;;;;;;;1.32;72.43;102784.06;5009941;28;20757;-60
2024/01/20 07:21:05;;;;;;;28.73;18.25;;;;;;;1.30;73.12;102782.47;5010454;28;20033;-60
2024/01/20 07:23:30;;;;;;;30.50;18.77;;;;;;;1.31;72.93;102789.69;5001545;28;20025;-60
2024/01/20 07:25:56;;;;;;;31.38;19.67;;;;;;;1.29;73.33;102781.59;4989938;28;20030;-60
2024/01/20 07:28:22;;;;;;;30.40;19.50;;;;;;;1.30;72.91;102785.19;4990793;28;20077;-60
2024/01/20 07:30:50;;;;;;;30.25;19.38;;;;;;;1.30;73.04;102791.56;5006011;28;20013;-60
2024/01/20 07:33:15;;;;;;;31.63;19.17;;;;;;;1.33;72.93;102783.03;5016200;28;20023;-60
2024/01/20 07:35:40;;;;;;;32.83;21.38;;;;;;;1.35;72.23;102780.19;4997195;28;20030;-59
2024/01/20 07:38:06;;;;;;;30.95;20.05;;;;;;;1.26;72.33;102786.50;5026633;28;20071;-61
2024/01/20 07:40:31;;;;;;;31.63;19.52;;;;;;;1.20;73.58;102791.56;5029040;28;20052;-60
2024/01/20 07:42:57;;;;;;;32.25;19.50;;;;;;;1.21;72.97;102789.69;5029345;28;20079;-59
2024/01/20 07:45:22;;;;;;;33.63;19.65;;;;;;;1.15;73.23;102796.59;5029265;28;20026;-60
2024/01/20 07:47:48;;;;;;;29.70;19.17;;;;;;;1.10;73.58;102787.97;5028387;28;20029;-60
2024/01/20 07:50:13;;;;;;;30.55;20.13;;;;;;;1.12;73.82;102785.94;4996626;28;20042;-60
2024/01/20 07:52:38;;;;;;;31.30;20.55;;;;;;;1.15;73.70;102796.59;5012190;28;20026;-61
2024/01/20 07:55:04;;;;;;;33.45;21.60;;;;;;;1.16;73.31;102801.06;4999947;28;20419;-60
2024/01/20 07:57:30;;;;;;;36.92;22.58;;;;;;;1.20;73.57;102805.22;5009208;28;20774;-59
2024/01/20 07:59:55;;;;;;;34.83;22.75;;;;;;;1.23;73.48;102804.94;5009528;28;20026;-60
2024/01/20 08:02:23;;;;;;;36.25;22.42;;;;;;;1.26;73.25;102802.91;5018960;28;20057;-60
2024/01/20 08:04:49;;;;;;;38.58;22.42;;;;;;;1.29;73.53;102799.91;5010925;28;20109;-60
2024/01/20 08:07:14;;;;;;;34.70;22.08;;;;;;;1.30;73.31;102804.34;5009132;28;20113;-60
2024/01/20 08:09:39;;;;;;;33.50;22.85;;;;;;;1.31;73.06;102806.09;5012483;28;20750;-59
2024/01/20 08:12:05;;;;;;;30.95;20.15;;;;;;;1.30;73.21;102805.25;5005338;28;20154;-59
2024/01/20 08:14:30;;;;;;;33.30;21.17;;;;;;;1.26;72.95;102812.00;5012615;28;20090;-59
2024/01/20 08:16:56;;;;;;;32.85;20.75;;;;;;;1.29;73.02;102810.84;5003938;28;20076;-60
2024/01/20 08:19:21;;;;;;;32.92;21.52;;;;;;;1.28;72.93;102817.31;5004152;28;20038;-60
2024/01/20 08:21:46;;;;;;;33.47;21.55;;;;;;;1.29;72.75;102813.56;5011794;28;20035;-60
2024/01/20 08:24:12;;;;;;;34.88;21.92;;;;;;;1.28;73.24;102820.91;5001344;28;20086;-59
2024/01/20 08:26:37;;;;;;;31.60;20.13;;;;;;;1.28;73.33;102820.06;5012171;28;20063;-60
2024/01/20 08:29:02;;;;;;;34.38;20.45;;;;;;;1.26;73.46;102825.69;5006648;28;20056;-59
2024/01/20 08:31:28;;;;;;;27.92;18.88;;;;;;;1.29;73.64;102821.78;5008346;28;20480;-59
2024/01/20 08:33:54;;;;;;;31.17;20.90;;;;;;;1.27;72.84;102829.28;5012421;28;20034;-60
2024/01/20 08:36:19;;;;;;;32.90;20.90;;;;;;;1.31;73.13;102823.38;5014396;28;20022;-60
2024/01/20 08:38:45;;;;;;;37.25;21.63;;;;;;;1.31;73.05;102820.63;4989209;28;20059;-60
2024/01/20 08:41:11;;;;;;;33.33;20.55;;;;;;;1.31;72.68;102825.25;4989238;28;20082;-60
2024/01/20 08:43:40;;;;;;;30.70;20.02;;;;;;;1.25;72.55;102839.50;4988014;28;20117;-60
2024/01/20 08:46:06;;;;;;;34.33;21.30;;;;;;;1.26;73.42;102833.91;4990116;28;20059;-60
2024/01/20 08:48:40;;;;;;;34.65;22.73;;;;;;;1.28;72.94;102837.34;5027054;28;20113;-59
2024/01/20 08:51:06;;;;;;;35.78;22.27;;;;;;;1.32;73.64;102835.19;5086024;28;20034;-60
2024/01/20 08:53:33;;;;;;;33.45;21.35;;;;;;;1.29;72.93;102850.00;5020803;28;20030;-60
2024/01/20 08:56:01;;;;;;;31.10;20.90;;;;;;;1.32;73.45;102840.66;5012774;28;20083;-60
2024/01/20 08:58:27;;;;;;;32.05;20.55;;;;;;;1.34;73.09;102849.59;5063581;28;20110;-60
2024/01/20 09:00:52;;;;;;;29.83;19.55;;;;;;;1.35;73.61;102845.84;5060504;28;20194;-60
2024/01/20 09:03:18;;;;;;;33.63;21.00;;;;;;;1.35;73.38;102834.91;5060509;28;20033;-60
2024/01/20 09:05:43;;;;;;;29.52;18.80;;;;;;;1.33;73.45;102839.63;5012437;28;20034;-60
2024/01/20 09:08:10;;;;;;;32.35;20.20;;;;;;;1.28;72.85;102833.75;5054002;28;20020;-60
2024/01/20 09:10:36;;;;;;;33.75;21.23;;;;;;;1.33;73.71;102845.09;5060277;28;20033;-60
2024/01/20 09:13:07;;;;;;;33.28;25.75;;;;;;;1.36;72.94;102844.81;5011179;28;20034;-59
2024/01/20 09:15:38;;;;;;;30.48;20.20;;;;;;;1.27;73.44;102842.97;5030586;28;20055;-60
2024/01/20 09:18:03;;;;;;;30.80;21.20;;;;;;;1.29;73.70;102849.13;5026439;28;20042;-60
2024/01/20 09:20:29;;;;;;;36.92;25.17;;;;;;;1.27;73.58;102848.44;5007728;28;20139;-60
2024/01/20 09:22:54;;;;;;;36.35;24.13;;;;;;;1.31;73.67;102860.81;5015747;28;20041;-60
2024/01/20 09:25:19;;;;;;;33.58;21.48;;;;;;;1.25;73.03;102856.75;5007418;28;20093;-60
2024/01/20 09:27:45;;;;;;;33.00;22.17;;;;;;;1.25;73.03;102856.75;5025779;28;20463;-59
2024/01/20 09:30:10;;;;;;;31.85;20.77;;;;;;;1.25;73.74;102854.03;5026113;28;20044;-59
2024/01/20 09:32:35;;;;;;;31.45;21.70;;;;;;;1.30;73.14;102859.97;5068608;28;20015;-60
2024/01/20 09:35:02;;;;;;;29.50;20.00;;;;;;;1.33;73.79;102854.19;5056160;28;20395;-60
2024/01/20 09:37:29;;;;;;;29.67;19.90;;;;;;;1.33;73.26;102847.84;5009346;28;20033;-60
2024/01/20 09:39:54;;;;;;;31.45;20.67;;;;;;;1.29;73.53;102849.13;5044162;28;20043;-59
2024/01/20 09:42:20;;;;;;;33.47;21.17;;;;;;;1.30;73.86;102856.34;5020448;28;20037;-60
2024/01/20 09:44:46;;;;;;;34.42;22.10;;;;;;;1.27;73.50;102865.72;5016628;28;20050;-60
2024/01/20 09:47:12;;;;;;;33.60;22.25;;;;;;;1.30;73.89;102870.00;5007716;28;20107;-60
2024/01/20 09:49:38;;;;;;;36.78;26.10;;;;;;;1.33;73.66;102867.00;5008069;28;20472;-60
2024/01/20 09:52:12;;;;;;;39.95;30.48;;;;;;;1.42;76.01;102874.38;5004852;28;20534;-60
2024/01/20 09:54:52;;;;;;;35.53;23.25;;;;;;;1.54;74.01;102880.56;4993586;28;20600;-59
2024/01/20 09:57:19;;;;;;;34.63;21.45;;;;;;;1.51;73.82;102875.38;4995185;28;20022;-60
2024/01/20 09:59:45;;;;;;;34.17;21.70;;;;;;;1.46;73.28;102868.47;4991607;28;20057;-60
2024/01/20 10:02:11;;;;;;;37.78;22.50;;;;;;;1.43;73.23;102876.09;5005713;28;20388;-60
2024/01/20 10:04:42;;;;;;;34.88;21.85;;;;;;;1.31;72.84;102883.56;5006922;28;20026;-60
2024/01/20 10:07:08;;;;;;;31.98;21.13;;;;;;;1.26;73.57;102885.88;5007103;28;20029;-58
2024/01/20 10:09:37;;;;;;;30.70;21.00;;;;;;;1.24;73.08;102874.19;5006821;28;20377;-60
2024/01/20 10:12:02;;;;;;;33.22;20.58;;;;;;;1.26;74.01;102887.72;5007601;28;20534;-57
2024/01/20 10:14:27;;;;;;;35.33;20.75;;;;;;;1.30;73.54;102884.59;4998404;28;20113;-60
2024/01/20 10:16:53;;;;;;;31.85;21.50;;;;;;;1.36;73.81;102886.72;5017997;28;20469;-60
2024/01/20 10:19:19;;;;;;;31.90;20.42;;;;;;;1.38;73.10;102883.88;5014326;28;20497;-60
2024/01/20 10:21:44;;;;;;;30.92;20.40;;;;;;;1.43;73.66;102887.03;5009333;28;20496;-60
2024/01/20 10:24:09;;;;;;;30.20;19.77;;;;;;;1.45;72.79;102880.41;5010393;28;20163;-61
2024/01/20 10:26:44;;;;;;;32.50;19.75;;;;;;;1.52;73.24;102885.31;5010779;28;20663;-60
2024/01/20 10:29:10;;;;;;;31.38;19.38;;;;;;;1.51;73.28;102878.97;5009721;28;20034;-58
2024/01/20 10:31:35;;;;;;;31.98;19.13;;;;;;;1.52;72.91;102886.16;5011753;28;20126;-60
2024/01/20 10:34:01;;;;;;;31.67;18.77;;;;;;;1.56;72.88;102873.91;5009370;28;20022;-60
2024/01/20 10:36:27;;;;;;;29.58;18.85;;;;;;;1.59;73.08;102870.03;5001338;28;20029;-59
2024/01/20 10:38:59;;;;;;;28.63;17.23;;;;;;;1.55;71.92;102874.94;5010456;28;20124;-59
2024/01/20 10:41:25;;;;;;;26.88;17.95;;;;;;;1.56;72.57;102867.59;5010994;28;20041;-59
2024/01/20 10:44:02;;;;;;;30.50;19.65;;;;;;;1.61;72.97;102862.53;5010902;28;20763;-61
2024/01/20 10:46:29;;;;;;;32.08;19.42;;;;;;;1.59;72.61;102867.31;5006412;28;20038;-60
2024/01/20 10:49:00;;;;;;;41.83;32.50;;;;;;;1.64;72.35;102863.09;5010687;28;20121;-63
2024/01/20 10:51:29;;;;;;;36.92;30.30;;;;;;;1.64;71.96;102873.19;5018136;28;20416;-60
2024/01/20 10:53:56;;;;;;;33.47;24.15;;;;;;;1.63;72.36;102871.47;5010486;28;20053;-60
2024/01/20 10:56:22;;;;;;;31.85;22.20;;;;;;;1.61;72.41;102871.63;5009546;28;20034;-60
2024/01/20 10:59:10;;;;;;;30.52;19.42;;;;;;;1.61;72.98;102870.75;5005735;28;20029;-60
2024/01/20 11:01:37;;;;;;;32.30;19.90;;;;;;;1.62;72.51;102869.75;5013597;28;20468;-60
2024/01/20 11:04:03;;;;;;;33.35;20.55;;;;;;;1.82;74.61;102870.59;5020670;28;20117;-60
2024/01/20 11:06:29;;;;;;;28.67;18.83;;;;;;;1.86;73.23;102867.41;5009542;28;20117;-60
2024/01/20 11:08:55;;;;;;;31.48;19.08;;;;;;;1.85;72.27;102875.78;5009906;28;20134;-60
2024/01/20 11:11:34;;;;;;;30.42;19.00;;;;;;;1.84;72.50;102869.41;5009127;28;20026;-60